Time;durP1;ratioP1;P1;durP2;ratioP2;P2;SDS_P1;SDS_P2;PMS_P1;PMS_P2;Temp;Humidity;BMP_temperature;BMP_pressure;BME280_temperature;BME280_humidity;BME280_pressure;Samples;Min_cycle;Max_cycle;Signal;HPM_P1;HPM_P2
2023/01/06 00:00:21;;;;;;;536.17;507.52;;;7.70;99.90;;;;;;5029690;28;20565;-60
2023/01/06 00:02:47;;;;;;;535.50;506.77;;;7.70;99.90;;;;;;5028630;28;20379;-60
2023/01/06 00:05:13;;;;;;;521.93;493.97;;;7.70;99.90;;;;;;5030119;28;20931;-61
2023/01/06 00:07:39;;;;;;;528.08;500.00;;;7.80;99.90;;;;;;5028929;28;20422;-59
2023/01/06 00:10:06;;;;;;;529.67;500.95;;;7.80;99.90;;;;;;5029552;28;20722;-61
2023/01/06 00:12:32;;;;;;;535.50;506.50;;;7.80;99.90;;;;;;5030023;28;20790;-60
2023/01/06 00:14:57;;;;;;;542.30;512.90;;;7.70;99.90;;;;;;5030453;28;20414;-60
2023/01/06 00:17:23;;;;;;;544.92;515.35;;;7.70;99.90;;;;;;5029787;28;20402;-60
2023/01/06 00:19:49;;;;;;;561.22;530.78;;;7.70;99.90;;;;;;5031245;28;20437;-60
2023/01/06 00:22:14;;;;;;;541.00;511.77;;;7.60;99.90;;;;;;5028702;28;20407;-60
2023/01/06 00:24:40;;;;;;;536.03;506.97;;;7.70;99.90;;;;;;5027710;28;20391;-60
2023/01/06 00:27:05;;;;;;;550.13;520.60;;;7.70;99.90;;;;;;5028310;28;20415;-60
2023/01/06 00:29:31;;;;;;;555.80;525.38;;;7.70;99.90;;;;;;5025304;28;20446;-60
2023/01/06 00:31:59;;;;;;;549.58;519.75;;;7.70;99.90;;;;;;5023872;28;20565;-60
2023/01/06 00:34:24;;;;;;;557.35;526.78;;;7.60;99.90;;;;;;5024422;28;20518;-60
2023/01/06 00:36:50;;;;;;;558.73;528.10;;;7.60;99.90;;;;;;5026757;28;20391;-60
2023/01/06 00:39:16;;;;;;;563.40;532.83;;;7.70;99.90;;;;;;5027306;28;20434;-62
2023/01/06 00:44:25;;;;;;;584.37;551.73;;;7.70;99.90;;;;;;5032416;28;20873;-60
2023/01/06 00:46:51;;;;;;;582.53;550.00;;;7.70;99.90;;;;;;5030222;28;20523;-62
2023/01/06 00:49:16;;;;;;;585.67;553.40;;;7.70;99.90;;;;;;5031455;28;20714;-60
2023/01/06 00:51:42;;;;;;;566.80;535.17;;;7.70;99.90;;;;;;5030183;28;20437;-60
2023/01/06 00:54:10;;;;;;;574.15;542.67;;;7.60;99.90;;;;;;5028448;28;20860;-60
2023/01/06 00:56:38;;;;;;;566.03;534.80;;;7.60;99.90;;;;;;5028130;28;20445;-60
2023/01/06 00:59:04;;;;;;;570.30;538.80;;;7.60;99.90;;;;;;5028166;28;20722;-60
2023/01/06 01:01:30;;;;;;;578.30;546.28;;;7.60;99.90;;;;;;5027681;28;20758;-61
2023/01/06 01:03:56;;;;;;;574.05;542.28;;;7.60;99.90;;;;;;5029171;28;20375;-59
2023/01/06 01:06:21;;;;;;;576.63;544.80;;;7.60;99.90;;;;;;5028810;28;20628;-60
2023/01/06 01:08:51;;;;;;;578.28;546.53;;;7.60;99.90;;;;;;5029351;28;20430;-60
2023/01/06 01:14:01;;;;;;;576.85;545.17;;;7.70;99.90;;;;;;5030507;28;20489;-59
2023/01/06 01:16:27;;;;;;;580.60;548.40;;;7.70;99.90;;;;;;5030209;28;20482;-60
2023/01/06 01:18:52;;;;;;;579.65;547.70;;;7.70;99.90;;;;;;5029258;28;20387;-59
2023/01/06 01:21:18;;;;;;;590.63;557.72;;;7.70;99.90;;;;;;5028653;28;20407;-60
2023/01/06 01:23:43;;;;;;;588.77;555.97;;;7.70;99.90;;;;;;5028498;28;20414;-60
2023/01/06 01:26:09;;;;;;;586.40;553.57;;;7.70;99.90;;;;;;5027588;28;20391;-60
2023/01/06 01:28:35;;;;;;;593.05;559.50;;;7.70;99.90;;;;;;5027985;28;20410;-59
2023/01/06 01:31:01;;;;;;;578.50;546.13;;;7.60;99.90;;;;;;5029923;28;20482;-60
2023/01/06 01:33:31;;;;;;;586.80;553.97;;;7.60;99.90;;;;;;5030486;28;20409;-59
2023/01/06 01:35:56;;;;;;;661.72;623.22;;;7.50;99.90;;;;;;5028775;28;20415;-59
2023/01/06 01:38:24;;;;;;;695.13;654.10;;;7.60;99.90;;;;;;5028848;28;20433;-59
2023/01/06 01:40:50;;;;;;;685.75;644.90;;;7.60;99.90;;;;;;5028824;28;20682;-60
2023/01/06 01:43:16;;;;;;;662.53;623.80;;;7.60;99.90;;;;;;5028562;28;20387;-59
2023/01/06 01:45:48;;;;;;;685.37;644.50;;;7.60;99.90;;;;;;5028085;28;20379;-60
2023/01/06 01:48:28;;;;;;;682.75;642.20;;;7.60;99.90;;;;;;5027445;28;20650;-61
2023/01/06 01:50:57;;;;;;;678.97;638.83;;;7.60;99.90;;;;;;5028434;28;20383;-59
2023/01/06 01:53:36;;;;;;;700.07;657.93;;;7.60;99.90;;;;;;5028962;28;20478;-60
2023/01/06 01:56:05;;;;;;;741.28;695.25;;;7.60;99.90;;;;;;5030337;28;20407;-61
2023/01/06 01:58:47;;;;;;;727.00;682.45;;;7.70;99.90;;;;;;5032254;28;20505;-60
2023/01/06 02:01:13;;;;;;;713.40;670.00;;;7.60;99.90;;;;;;5032326;28;20403;-60
2023/01/06 02:03:40;;;;;;;704.95;662.47;;;7.60;99.90;;;;;;5031145;28;20686;-60
2023/01/06 02:06:14;;;;;;;699.60;657.45;;;7.60;99.90;;;;;;5033912;28;20767;-60
2023/01/06 02:08:45;;;;;;;724.05;680.25;;;7.60;99.90;;;;;;5035413;28;20666;-60
2023/01/06 02:11:11;;;;;;;743.85;698.30;;;7.60;99.90;;;;;;5036634;28;20536;-60
2023/01/06 02:13:40;;;;;;;713.75;670.03;;;7.60;99.90;;;;;;5036055;28;20430;-59
2023/01/06 02:16:26;;;;;;;719.77;676.43;;;7.60;99.90;;;;;;5033858;28;20383;-60
2023/01/06 02:19:22;;;;;;;711.47;668.92;;;7.60;99.90;;;;;;5033047;28;20382;-59
2023/01/06 02:22:04;;;;;;;720.63;677.13;;;7.60;99.90;;;;;;5031449;28;20395;-60
2023/01/06 02:25:17;;;;;;;706.55;664.25;;;7.70;99.90;;;;;;5030795;28;20379;-59
2023/01/06 02:28:17;;;;;;;719.75;675.88;;;7.70;99.90;;;;;;4973147;28;20378;-59
2023/01/06 02:31:15;;;;;;;717.55;674.15;;;7.80;99.90;;;;;;5032391;28;20397;-59
2023/01/06 02:34:11;;;;;;;704.78;662.67;;;7.80;99.90;;;;;;5009933;28;20383;-60
2023/01/06 02:36:58;;;;;;;734.78;690.15;;;7.80;99.90;;;;;;5031716;28;20418;-60
2023/01/06 02:39:51;;;;;;;750.97;704.03;;;7.80;99.90;;;;;;5030819;28;20483;-59
2023/01/06 02:42:44;;;;;;;745.10;699.03;;;7.80;99.90;;;;;;5033110;28;20491;-59
2023/01/06 02:45:41;;;;;;;735.70;690.60;;;7.80;99.90;;;;;;5030976;28;20476;-59
2023/01/06 02:48:31;;;;;;;744.38;698.63;;;7.80;99.90;;;;;;5030996;28;20387;-59
2023/01/06 02:51:15;;;;;;;776.30;727.97;;;7.80;99.90;;;;;;5030710;28;20421;-59
2023/01/06 02:54:18;;;;;;;790.15;740.45;;;7.80;99.90;;;;;;5028636;28;20938;-59
2023/01/06 02:56:48;;;;;;;786.70;737.10;;;7.80;99.90;;;;;;5029495;28;20538;-60
2023/01/06 02:59:25;;;;;;;767.83;719.85;;;7.80;99.90;;;;;;5030751;28;20413;-60
2023/01/06 03:01:53;;;;;;;774.33;725.40;;;7.80;99.90;;;;;;5031267;28;20411;-60
2023/01/06 03:04:27;;;;;;;749.53;702.85;;;7.90;99.90;;;;;;5033198;28;20393;-59
2023/01/06 03:06:57;;;;;;;771.10;722.90;;;7.90;99.90;;;;;;5032876;28;20387;-59
2023/01/06 03:09:28;;;;;;;774.08;725.25;;;7.90;99.90;;;;;;5031945;28;20415;-58
2023/01/06 03:11:54;;;;;;;791.60;741.55;;;7.90;99.90;;;;;;5031009;28;20391;-58
2023/01/06 03:14:28;;;;;;;755.60;708.50;;;7.90;99.90;;;;;;5030870;28;20411;-59
2023/01/06 03:16:54;;;;;;;777.03;728.05;;;8.00;99.90;;;;;;5029174;28;20403;-60
2023/01/06 03:19:20;;;;;;;764.88;717.22;;;8.00;99.90;;;;;;5029675;28;20391;-59
2023/01/06 03:21:48;;;;;;;764.40;716.63;;;8.00;99.90;;;;;;5032095;28;20454;-60
2023/01/06 03:24:15;;;;;;;771.78;723.70;;;8.00;99.90;;;;;;5033927;28;20761;-60
2023/01/06 03:26:43;;;;;;;798.47;748.03;;;7.90;99.90;;;;;;5034835;28;20815;-60
2023/01/06 03:29:13;;;;;;;789.92;739.67;;;8.00;99.90;;;;;;5033051;28;20502;-59
2023/01/06 03:31:59;;;;;;;789.38;739.50;;;8.00;99.90;;;;;;5034283;28;20427;-59
2023/01/06 03:34:40;;;;;;;782.67;732.83;;;8.10;99.90;;;;;;5033506;28;20457;-60
2023/01/06 03:37:20;;;;;;;763.88;715.97;;;8.10;99.90;;;;;;5033609;28;20475;-60
2023/01/06 03:40:01;;;;;;;778.83;729.47;;;8.10;99.90;;;;;;5034339;28;20401;-60
2023/01/06 03:45:53;;;;;;;794.92;744.00;;;8.10;99.90;;;;;;5036224;28;20386;-60
2023/01/06 03:49:16;;;;;;;801.50;750.10;;;8.20;99.90;;;;;;5034673;28;20387;-60
2023/01/06 03:52:04;;;;;;;799.83;748.87;;;8.20;99.90;;;;;;4977765;28;20387;-59
2023/01/06 03:54:57;;;;;;;790.50;739.85;;;8.20;99.90;;;;;;4976704;28;20440;-59
2023/01/06 03:57:42;;;;;;;792.47;741.55;;;8.20;99.90;;;;;;5025028;28;20457;-59
2023/01/06 04:00:13;;;;;;;835.30;781.05;;;8.20;99.90;;;;;;5033915;28;20394;-60
2023/01/06 04:02:40;;;;;;;842.33;787.38;;;8.20;99.90;;;;;;5033535;28;20429;-58
2023/01/06 04:05:24;;;;;;;842.30;787.25;;;8.30;99.90;;;;;;5032212;28;20375;-60
2023/01/06 04:07:49;;;;;;;869.45;812.47;;;8.30;99.90;;;;;;5032210;28;20379;-60
2023/01/06 04:10:17;;;;;;;872.33;814.33;;;8.30;99.90;;;;;;5032314;28;20387;-60
2023/01/06 04:12:42;;;;;;;878.25;820.55;;;8.30;99.90;;;;;;5033288;28;20788;-59
2023/01/06 04:15:16;;;;;;;867.37;810.87;;;8.30;99.90;;;;;;5031904;28;20413;-60
2023/01/06 04:17:42;;;;;;;862.03;805.17;;;8.40;99.90;;;;;;5033678;28;20425;-60
2023/01/06 04:20:12;;;;;;;872.85;815.08;;;8.40;99.90;;;;;;5031558;28;20552;-60
2023/01/06 04:22:38;;;;;;;875.30;816.70;;;8.40;99.90;;;;;;5029933;28;20504;-60
2023/01/06 04:25:04;;;;;;;906.80;846.27;;;8.40;99.90;;;;;;5029559;28;20477;-60
2023/01/06 04:27:29;;;;;;;895.20;835.42;;;8.40;99.90;;;;;;5029898;28;20660;-58
2023/01/06 04:29:55;;;;;;;905.00;844.35;;;8.40;99.90;;;;;;5027672;28;20719;-59
2023/01/06 04:32:21;;;;;;;907.53;845.35;;;8.50;99.90;;;;;;5028858;28;20399;-60
2023/01/06 04:34:46;;;;;;;906.90;846.30;;;8.60;99.90;;;;;;5028865;28;20391;-60
2023/01/06 04:37:12;;;;;;;890.95;830.72;;;8.60;99.90;;;;;;5030453;28;20387;-59
2023/01/06 04:39:38;;;;;;;917.33;854.28;;;8.60;99.90;;;;;;5029962;28;20387;-59
2023/01/06 04:42:03;;;;;;;943.22;878.22;;;8.60;99.90;;;;;;5027671;28;20419;-60
2023/01/06 04:44:29;;;;;;;960.43;894.17;;;8.60;99.90;;;;;;5029746;28;20553;-60
2023/01/06 04:46:55;;;;;;;962.63;895.67;;;8.60;99.90;;;;;;5029657;28;20389;-58
2023/01/06 04:49:20;;;;;;;954.30;887.50;;;8.60;99.90;;;;;;5030549;28;20410;-59
2023/01/06 04:51:46;;;;;;;969.83;901.40;;;8.60;99.90;;;;;;5030441;28;20562;-60
2023/01/06 04:54:11;;;;;;;973.33;904.22;;;8.60;99.90;;;;;;5031103;28;20803;-60
2023/01/06 04:56:37;;;;;;;1001.83;930.27;;;8.60;99.90;;;;;;5031408;28;20530;-61
2023/01/06 04:59:02;;;;;;;1005.67;933.20;;;8.60;99.90;;;;;;5032677;28;20402;-61
2023/01/06 05:01:28;;;;;;;1012.05;939.53;;;8.70;99.90;;;;;;5029657;28;20921;-60
2023/01/06 05:03:53;;;;;;;1017.50;942.83;;;8.70;99.90;;;;;;5031117;28;20406;-59
2023/01/06 05:06:19;;;;;;;989.90;919.30;;;8.70;99.90;;;;;;5031970;28;20485;-59
2023/01/06 05:08:46;;;;;;;996.03;924.17;;;8.70;99.90;;;;;;5030579;28;20941;-59
2023/01/06 05:11:15;;;;;;;990.63;918.47;;;8.70;99.90;;;;;;5030042;28;20402;-59
2023/01/06 05:13:41;;;;;;;1023.93;949.97;;;8.70;99.90;;;;;;5029355;28;20480;-61
2023/01/06 05:16:09;;;;;;;967.67;899.83;;;8.80;99.90;;;;;;5026836;28;20399;-60
2023/01/06 05:18:35;;;;;;;966.85;899.40;;;8.80;99.90;;;;;;5026415;28;20387;-58
2023/01/06 05:21:01;;;;;;;979.58;909.92;;;8.80;99.90;;;;;;5028261;28;20404;-60
2023/01/06 05:23:26;;;;;;;963.38;895.63;;;8.90;99.90;;;;;;5028934;28;20383;-60
2023/01/06 05:25:53;;;;;;;967.70;899.00;;;8.90;99.90;;;;;;5029053;28;20386;-60
2023/01/06 05:28:19;;;;;;;978.03;907.90;;;8.90;99.90;;;;;;5028497;28;20407;-60
2023/01/06 05:30:45;;;;;;;949.28;882.50;;;8.90;99.90;;;;;;5029358;28;20488;-60
2023/01/06 05:33:11;;;;;;;956.13;887.65;;;9.00;99.90;;;;;;5030871;28;20706;-60
2023/01/06 05:35:36;;;;;;;930.40;865.07;;;9.00;99.90;;;;;;5031239;28;20474;-60
2023/01/06 05:38:02;;;;;;;948.00;881.80;;;9.00;99.90;;;;;;5030617;28;20371;-58
2023/01/06 05:40:28;;;;;;;958.83;890.43;;;9.00;99.90;;;;;;5031902;28;20446;-60
2023/01/06 05:42:54;;;;;;;960.95;893.35;;;9.00;99.90;;;;;;5032080;28;20477;-60
2023/01/06 05:45:21;;;;;;;943.33;875.72;;;9.10;99.90;;;;;;5030625;28;20460;-60
2023/01/06 05:47:47;;;;;;;960.17;891.47;;;9.10;99.90;;;;;;5032080;28;20494;-60
2023/01/06 05:50:12;;;;;;;966.35;898.38;;;9.10;99.90;;;;;;5032131;28;20794;-60
2023/01/06 05:52:38;;;;;;;945.23;877.80;;;9.10;99.90;;;;;;5031245;28;20755;-60
2023/01/06 05:55:04;;;;;;;949.53;881.70;;;9.10;99.90;;;;;;5027956;28;20387;-60
2023/01/06 05:57:32;;;;;;;960.17;890.83;;;9.20;99.90;;;;;;5028438;28;20379;-60
2023/01/06 05:59:57;;;;;;;966.75;897.38;;;9.20;99.90;;;;;;5026212;28;20395;-60
2023/01/06 06:02:23;;;;;;;984.10;912.97;;;9.20;99.90;;;;;;5027295;28;20411;-60
2023/01/06 06:04:49;;;;;;;996.20;923.63;;;9.20;99.90;;;;;;5027262;28;20945;-60
2023/01/06 06:07:14;;;;;;;1013.25;939.35;;;9.20;99.90;;;;;;5028734;28;20781;-60
2023/01/06 06:09:40;;;;;;;998.33;925.60;;;9.20;99.90;;;;;;5029408;28;20384;-61
2023/01/06 06:12:06;;;;;;;988.73;918.10;;;9.20;99.90;;;;;;5032094;28;20448;-60
2023/01/06 06:14:31;;;;;;;991.77;919.93;;;9.20;99.90;;;;;;5032339;28;20732;-60
2023/01/06 06:16:57;;;;;;;997.60;925.50;;;9.20;99.90;;;;;;5033864;28;20575;-59
2023/01/06 06:19:23;;;;;;;1003.70;931.23;;;9.20;99.90;;;;;;5031389;28;20570;-60
2023/01/06 06:21:48;;;;;;;997.58;925.72;;;9.20;99.90;;;;;;5031966;28;20846;-60
2023/01/06 06:24:14;;;;;;;1006.15;931.97;;;9.30;99.90;;;;;;5032455;28;20391;-58
2023/01/06 06:26:40;;;;;;;995.08;922.95;;;9.30;99.90;;;;;;5031799;28;20388;-60
2023/01/06 06:29:06;;;;;;;987.15;915.67;;;9.30;99.90;;;;;;5030980;28;20409;-60
2023/01/06 06:31:32;;;;;;;996.83;924.33;;;9.30;99.90;;;;;;5031925;28;20573;-61
2023/01/06 06:34:00;;;;;;;1005.67;933.17;;;9.30;99.90;;;;;;5033022;28;20752;-60
2023/01/06 06:36:26;;;;;;;987.90;917.30;;;9.40;99.90;;;;;;5032870;28;20387;-60
2023/01/06 06:38:53;;;;;;;1016.22;942.83;;;9.40;99.90;;;;;;5030135;28;20491;-60
2023/01/06 06:41:20;;;;;;;994.30;923.97;;;9.40;99.90;;;;;;5029203;28;20422;-61
2023/01/06 06:43:47;;;;;;;1013.45;940.08;;;9.40;99.90;;;;;;5028142;28;20439;-60
2023/01/06 06:46:13;;;;;;;1041.60;965.53;;;9.40;99.90;;;;;;5027893;28;20504;-60
2023/01/06 06:48:38;;;;;;;1025.00;950.93;;;9.40;99.90;;;;;;5027801;28;20398;-60
2023/01/06 06:51:06;;;;;;;1031.13;955.83;;;9.40;99.90;;;;;;5026329;28;20383;-58
2023/01/06 06:53:32;;;;;;;1039.35;964.13;;;9.50;99.90;;;;;;5027935;28;20383;-60
2023/01/06 06:55:58;;;;;;;1071.07;989.78;;;9.50;99.90;;;;;;5028775;28;20398;-58
2023/01/06 06:58:24;;;;;;;1079.25;997.50;;;9.50;99.90;;;;;;5028539;28;20414;-59
2023/01/06 07:00:50;;;;;;;1096.35;999.90;;;9.50;99.90;;;;;;5028908;28;20512;-60
2023/01/06 07:03:16;;;;;;;1081.75;999.90;;;9.60;99.90;;;;;;5027623;28;20387;-60
2023/01/06 07:05:43;;;;;;;1094.57;999.90;;;9.60;99.90;;;;;;5027377;28;20414;-59
2023/01/06 07:08:10;;;;;;;1103.85;999.90;;;9.60;99.90;;;;;;5027453;28;20379;-60
2023/01/06 07:10:36;;;;;;;1147.82;999.90;;;9.60;99.90;;;;;;5028218;28;20383;-59
2023/01/06 07:13:02;;;;;;;1131.75;999.90;;;9.60;99.90;;;;;;5027783;28;20384;-59
2023/01/06 07:15:27;;;;;;;1132.95;999.90;;;9.60;99.90;;;;;;5027333;28;20717;-60
2023/01/06 07:17:53;;;;;;;1105.90;999.90;;;9.60;99.90;;;;;;5025139;28;20422;-58
2023/01/06 07:20:19;;;;;;;1080.67;997.77;;;9.60;99.90;;;;;;5025194;28;20725;-58
2023/01/06 07:22:44;;;;;;;1099.73;999.90;;;9.60;99.90;;;;;;5022585;28;20550;-60
2023/01/06 07:25:10;;;;;;;1087.10;999.90;;;9.60;99.90;;;;;;5022377;28;20545;-60
2023/01/06 07:27:36;;;;;;;1106.78;999.90;;;9.60;99.90;;;;;;5021764;28;20491;-60
2023/01/06 07:30:03;;;;;;;1108.85;999.90;;;9.60;99.90;;;;;;5022288;28;20449;-59
2023/01/06 07:32:29;;;;;;;1102.57;999.90;;;9.60;99.90;;;;;;5020486;28;20390;-58
2023/01/06 07:34:55;;;;;;;1114.97;999.90;;;9.60;99.90;;;;;;5019933;28;20662;-59
2023/01/06 07:37:21;;;;;;;1127.87;999.90;;;9.60;99.90;;;;;;5018310;28;20395;-59
2023/01/06 07:39:46;;;;;;;1148.80;999.90;;;9.60;99.90;;;;;;5018585;28;20772;-60
2023/01/06 07:42:12;;;;;;;1124.10;999.90;;;9.60;99.90;;;;;;5018052;28;20419;-60
2023/01/06 07:44:38;;;;;;;1085.83;999.90;;;9.60;99.90;;;;;;5017308;28;20508;-58
2023/01/06 07:47:03;;;;;;;1081.07;998.75;;;9.60;99.90;;;;;;5017701;28;20390;-59
2023/01/06 07:49:29;;;;;;;1082.80;999.90;;;9.60;99.90;;;;;;5016517;28;20403;-60
2023/01/06 07:51:55;;;;;;;1099.95;999.90;;;9.60;99.90;;;;;;5018139;28;20519;-59
2023/01/06 07:54:20;;;;;;;1086.53;999.90;;;9.60;99.90;;;;;;5016842;28;20395;-59
2023/01/06 07:56:46;;;;;;;1085.47;999.90;;;9.60;99.90;;;;;;5015375;28;20387;-59
2023/01/06 07:59:11;;;;;;;1083.40;999.90;;;9.60;99.90;;;;;;5014088;28;20407;-59
2023/01/06 08:01:37;;;;;;;1059.78;979.38;;;9.60;99.90;;;;;;5013521;28;20407;-59
2023/01/06 08:04:03;;;;;;;1071.57;990.67;;;9.60;99.90;;;;;;5011286;28;20645;-59
2023/01/06 08:06:28;;;;;;;1049.77;971.13;;;9.60;99.90;;;;;;5011760;28;20391;-59
2023/01/06 08:08:54;;;;;;;1016.27;942.43;;;9.50;99.90;;;;;;5014107;28;20591;-59
2023/01/06 08:11:20;;;;;;;1023.53;948.33;;;9.50;99.90;;;;;;5018445;28;20406;-59
2023/01/06 08:13:46;;;;;;;1027.82;951.10;;;9.60;99.90;;;;;;5022006;28;20411;-58
2023/01/06 08:16:12;;;;;;;1008.53;933.60;;;9.60;99.90;;;;;;5019055;28;20467;-59
2023/01/06 08:18:38;;;;;;;1019.40;944.73;;;9.60;99.90;;;;;;5021334;28;20402;-60
2023/01/06 08:21:06;;;;;;;1022.80;947.40;;;9.60;99.90;;;;;;5018227;28;20852;-59
2023/01/06 08:23:33;;;;;;;1054.68;976.47;;;9.60;99.90;;;;;;5016297;28;20413;-60
2023/01/06 08:26:08;;;;;;;1055.13;977.22;;;9.60;99.90;;;;;;5014224;28;20791;-59
2023/01/06 08:28:34;;;;;;;1069.65;988.42;;;9.60;99.90;;;;;;5015208;28;20709;-58
2023/01/06 08:31:00;;;;;;;1072.07;990.80;;;9.60;99.90;;;;;;5016427;28;20383;-59
2023/01/06 08:33:26;;;;;;;1102.57;999.90;;;9.60;99.90;;;;;;5016304;28;20397;-59
2023/01/06 08:36:03;;;;;;;1092.77;999.90;;;9.60;99.90;;;;;;5016695;28;20421;-59
2023/01/06 08:38:30;;;;;;;1150.80;999.90;;;9.60;99.90;;;;;;5015405;28;20494;-59
2023/01/06 08:40:56;;;;;;;1141.70;999.90;;;9.70;99.90;;;;;;5015857;28;20414;-59
2023/01/06 08:43:23;;;;;;;1151.00;999.90;;;9.70;99.90;;;;;;5018524;28;20492;-59
2023/01/06 08:45:49;;;;;;;1144.35;999.90;;;9.70;99.90;;;;;;5018983;28;20386;-59
2023/01/06 08:48:14;;;;;;;1157.50;999.90;;;9.60;99.90;;;;;;5019298;28;20516;-58
2023/01/06 08:50:41;;;;;;;1154.13;999.90;;;9.70;99.90;;;;;;5018740;28;20383;-59
2023/01/06 08:53:09;;;;;;;1149.32;999.90;;;9.70;99.90;;;;;;5020379;28;20383;-59
2023/01/06 08:55:38;;;;;;;1160.88;999.90;;;9.70;99.90;;;;;;5020551;28;20383;-59
2023/01/06 08:58:04;;;;;;;1136.10;999.90;;;9.70;99.90;;;;;;5019006;28;20965;-59
2023/01/06 09:00:29;;;;;;;1111.43;999.90;;;9.70;99.90;;;;;;5018145;28;20460;-59
2023/01/06 09:02:55;;;;;;;1101.05;999.90;;;9.70;99.90;;;;;;5022177;28;21017;-59
2023/01/06 09:05:21;;;;;;;1110.37;999.90;;;9.70;99.90;;;;;;5023787;28;20488;-59
2023/01/06 09:07:46;;;;;;;1087.93;999.90;;;9.70;99.90;;;;;;5026091;28;20542;-59
2023/01/06 09:10:12;;;;;;;1084.33;999.30;;;9.70;99.90;;;;;;5024625;28;20394;-59
2023/01/06 09:12:39;;;;;;;1121.03;999.90;;;9.70;99.90;;;;;;5026543;28;20810;-59
2023/01/06 09:15:05;;;;;;;1076.87;994.13;;;9.70;99.90;;;;;;5028589;28;21062;-59
2023/01/06 09:17:31;;;;;;;1117.65;999.90;;;9.70;99.90;;;;;;5029336;28;20529;-60
2023/01/06 09:19:57;;;;;;;1126.43;999.90;;;9.70;99.90;;;;;;5029118;28;20486;-59
2023/01/06 09:22:22;;;;;;;1115.10;999.90;;;9.70;99.90;;;;;;5029991;28;20399;-59
2023/01/06 09:24:48;;;;;;;1128.30;999.90;;;9.70;99.90;;;;;;5031540;28;20386;-59
2023/01/06 09:27:14;;;;;;;1161.30;999.90;;;9.70;99.90;;;;;;5029142;28;20383;-60
2023/01/06 09:29:40;;;;;;;1149.97;999.90;;;9.70;99.90;;;;;;5029372;28;20399;-59
2023/01/06 09:32:06;;;;;;;1144.90;999.90;;;9.70;99.90;;;;;;5027648;28;20487;-58
2023/01/06 09:34:33;;;;;;;1153.25;999.90;;;9.70;99.90;;;;;;5025940;28;20494;-57
2023/01/06 09:37:00;;;;;;;1147.60;999.90;;;9.80;99.90;;;;;;5026490;28;20383;-59
2023/01/06 09:39:26;;;;;;;1142.82;999.90;;;9.80;99.90;;;;;;5024807;28;21005;-60
2023/01/06 09:42:28;;;;;;;1168.57;999.90;;;9.80;99.90;;;;;;5024697;28;20522;-59
2023/01/06 09:45:01;;;;;;;1129.07;999.90;;;9.80;99.90;;;;;;5026323;28;20403;-59
2023/01/06 09:47:44;;;;;;;1124.68;999.90;;;9.80;99.90;;;;;;5027383;28;20390;-59
2023/01/06 09:50:31;;;;;;;1050.50;970.88;;;9.80;99.90;;;;;;5027323;28;20387;-59
2023/01/06 09:53:02;;;;;;;1061.70;980.78;;;9.80;99.90;;;;;;5027565;28;20382;-59
2023/01/06 09:55:31;;;;;;;1063.15;982.42;;;9.70;99.90;;;;;;5026141;28;20479;-58
2023/01/06 09:58:11;;;;;;;1067.40;988.28;;;9.70;99.90;;;;;;5028350;28;20414;-59
2023/01/06 10:00:54;;;;;;;1041.53;964.65;;;9.70;99.90;;;;;;5024629;28;20414;-59
2023/01/06 10:03:23;;;;;;;1043.35;965.92;;;9.70;99.90;;;;;;5026313;28;21068;-60
2023/01/06 10:06:10;;;;;;;1041.10;964.30;;;9.70;99.90;;;;;;5025684;28;20403;-59
2023/01/06 10:09:00;;;;;;;1024.80;947.95;;;9.70;99.90;;;;;;5025784;28;20379;-59
2023/01/06 10:11:33;;;;;;;1066.38;986.20;;;9.70;99.90;;;;;;5024029;28;20382;-60
2023/01/06 10:14:39;;;;;;;1084.65;999.90;;;9.70;99.90;;;;;;5024185;28;20379;-59
2023/01/06 10:17:27;;;;;;;1097.43;999.90;;;9.70;99.90;;;;;;5023237;28;20995;-59
2023/01/06 10:20:22;;;;;;;1096.90;999.90;;;9.80;99.90;;;;;;5023726;28;20407;-59
2023/01/06 10:23:12;;;;;;;1140.30;999.90;;;9.80;99.90;;;;;;5026308;28;20485;-59
2023/01/06 10:25:54;;;;;;;1168.43;999.90;;;9.90;99.90;;;;;;5024356;28;20394;-59
2023/01/06 10:28:53;;;;;;;1158.32;999.90;;;9.90;99.90;;;;;;5025781;28;20383;-59
2023/01/06 10:31:33;;;;;;;1167.72;999.90;;;9.90;99.90;;;;;;5014453;28;20397;-59
2023/01/06 10:34:02;;;;;;;1157.72;999.90;;;9.90;99.90;;;;;;5025726;28;20452;-59
2023/01/06 10:36:38;;;;;;;1136.90;999.90;;;9.90;99.90;;;;;;5026487;28;20417;-59
2023/01/06 10:39:12;;;;;;;1146.27;999.90;;;9.90;99.90;;;;;;5024418;28;20487;-60
2023/01/06 10:45:02;;;;;;;1118.25;999.90;;;9.90;99.90;;;;;;5024499;28;20375;-59
2023/01/06 10:47:31;;;;;;;1086.95;999.90;;;9.90;99.90;;;;;;5025130;28;20483;-60
2023/01/06 10:49:58;;;;;;;1065.45;986.22;;;9.90;99.90;;;;;;5023598;28;20383;-60
2023/01/06 10:52:25;;;;;;;1012.65;941.17;;;9.90;99.90;;;;;;5022461;28;20710;-58
2023/01/06 10:54:55;;;;;;;1036.50;962.08;;;9.90;99.90;;;;;;5024726;28;20403;-60
2023/01/06 10:57:28;;;;;;;1074.25;993.42;;;10.10;99.90;;;;;;5024748;28;20420;-60
2023/01/06 11:00:08;;;;;;;1078.03;997.95;;;10.00;99.90;;;;;;5022981;28;20387;-60
2023/01/06 11:02:34;;;;;;;1083.93;999.85;;;10.00;99.90;;;;;;5022138;28;20398;-60
2023/01/06 11:05:02;;;;;;;1073.40;992.45;;;10.00;99.90;;;;;;5021624;28;20452;-60
2023/01/06 11:07:30;;;;;;;1040.65;963.92;;;9.90;99.90;;;;;;5023001;28;20391;-60
2023/01/06 11:09:56;;;;;;;1041.88;964.83;;;9.90;99.90;;;;;;5042845;28;20399;-60
2023/01/06 11:12:26;;;;;;;1049.40;971.22;;;9.90;99.90;;;;;;5026616;28;20410;-60
2023/01/06 11:15:20;;;;;;;1026.20;951.00;;;9.90;99.90;;;;;;5027656;28;21087;-59
2023/01/06 11:17:47;;;;;;;1049.82;972.58;;;9.90;99.90;;;;;;5026614;28;20394;-60
2023/01/06 11:20:16;;;;;;;1076.00;997.22;;;9.90;99.90;;;;;;5027555;28;20426;-61
2023/01/06 11:22:42;;;;;;;1135.93;999.90;;;9.90;99.90;;;;;;5025738;28;20494;-61
2023/01/06 11:25:20;;;;;;;1128.70;999.90;;;9.80;99.90;;;;;;5024636;28;20430;-61
2023/01/06 11:28:06;;;;;;;1136.53;999.90;;;9.80;99.90;;;;;;5021805;28;20380;-61
2023/01/06 11:30:47;;;;;;;1115.13;999.90;;;9.80;99.90;;;;;;5016119;28;20384;-60
2023/01/06 11:33:25;;;;;;;1112.85;999.90;;;9.80;99.90;;;;;;5022790;28;20383;-60
2023/01/06 11:35:52;;;;;;;1132.95;999.90;;;9.80;99.90;;;;;;5023716;28;20439;-61
2023/01/06 11:38:20;;;;;;;1118.55;999.90;;;9.90;99.90;;;;;;5023176;28;20518;-61
2023/01/06 11:40:48;;;;;;;1007.30;934.75;;;9.90;99.90;;;;;;5019623;28;20407;-62
2023/01/06 11:43:18;;;;;;;982.13;912.33;;;9.90;99.90;;;;;;5018111;28;20407;-61
2023/01/06 11:46:07;;;;;;;909.60;848.25;;;10.00;99.90;;;;;;5017786;28;20379;-60
2023/01/06 11:48:39;;;;;;;878.85;820.65;;;10.00;99.90;;;;;;5017996;28;20388;-61
2023/01/06 11:51:07;;;;;;;773.17;724.55;;;10.00;99.90;;;;;;5019524;28;20492;-61
2023/01/06 11:53:35;;;;;;;646.92;609.75;;;10.10;99.90;;;;;;5017817;28;20393;-61
2023/01/06 11:56:14;;;;;;;593.65;561.05;;;10.10;99.90;;;;;;5018009;28;20674;-60
2023/01/06 11:59:08;;;;;;;527.15;499.48;;;10.20;99.90;;;;;;5022114;28;20397;-61
2023/01/06 12:02:10;;;;;;;509.60;482.92;;;10.40;99.90;;;;;;5022503;28;20428;-61
2023/01/06 12:04:52;;;;;;;530.85;502.48;;;10.50;99.90;;;;;;4991126;28;20415;-61
2023/01/06 12:07:36;;;;;;;554.23;523.73;;;10.80;99.90;;;;;;5054516;28;20399;-61
2023/01/06 12:10:15;;;;;;;546.88;517.60;;;10.90;99.90;;;;;;5021104;28;20387;-61
2023/01/06 12:12:41;;;;;;;523.75;496.02;;;11.10;99.90;;;;;;5020715;28;20924;-61
2023/01/06 12:15:16;;;;;;;500.60;474.55;;;11.30;99.90;;;;;;5018769;28;20387;-61
2023/01/06 12:17:44;;;;;;;513.63;486.50;;;11.20;99.90;;;;;;5019717;28;20387;-60
2023/01/06 12:20:34;;;;;;;509.80;483.15;;;11.10;99.90;;;;;;5018043;28;20387;-60
2023/01/06 12:23:04;;;;;;;520.15;492.60;;;11.10;99.90;;;;;;5013651;28;20403;-61
2023/01/06 12:25:39;;;;;;;528.05;499.83;;;11.30;99.90;;;;;;5015559;28;20383;-61
2023/01/06 12:28:13;;;;;;;545.37;516.27;;;11.40;99.90;;;;;;5019099;28;20479;-60
2023/01/06 12:30:53;;;;;;;467.63;443.98;;;11.50;99.90;;;;;;5021197;28;20383;-61
2023/01/06 12:33:29;;;;;;;493.48;467.75;;;11.60;99.90;;;;;;5019767;28;20489;-60
2023/01/06 12:35:59;;;;;;;444.58;422.20;;;11.80;99.90;;;;;;5020748;28;20398;-60
2023/01/06 12:38:39;;;;;;;426.50;404.73;;;11.70;99.90;;;;;;5020587;28;20811;-60
2023/01/06 12:41:43;;;;;;;424.95;403.80;;;11.70;99.90;;;;;;5017510;28;20421;-60
2023/01/06 12:44:17;;;;;;;423.60;402.57;;;11.60;99.90;;;;;;5020518;28;20841;-60